Time;durP1;ratioP1;P1;durP2;ratioP2;P2;SDS_P1;SDS_P2;PMS_P1;PMS_P2;Temp;Humidity;BMP_temperature;BMP_pressure;BME280_temperature;BME280_humidity;BME280_pressure;Samples;Min_cycle;Max_cycle;Signal;HPM_P1;HPM_P2
2022/06/06 00:00:47;;;;;;;78.38;44.47;;;;;;;15.58;100.00;68505.59;4988995;28;20053;-86
2022/06/06 00:03:15;;;;;;;78.65;39.38;;;;;;;15.60;100.00;68506.75;4980582;28;20041;-86
2022/06/06 00:05:47;;;;;;;78.00;41.95;;;;;;;15.57;100.00;68499.09;5005400;28;20401;-86
2022/06/06 00:08:13;;;;;;;83.18;43.75;;;;;;;;;;5001515;28;20065;-88
2022/06/06 00:10:40;;;;;;;81.28;39.83;;;;;;;15.54;100.00;68503.72;4987997;28;20069;-88
2022/06/06 00:13:06;;;;;;;74.32;36.55;;;;;;;15.52;100.00;68498.19;5002997;28;20046;-88
2022/06/06 00:15:31;;;;;;;84.95;37.28;;;;;;;15.56;100.00;68503.31;5005035;28;20081;-89
2022/06/06 00:17:57;;;;;;;85.53;38.80;;;;;;;15.53;100.00;68499.88;5006452;28;20038;-89
2022/06/06 00:20:22;;;;;;;83.40;39.70;;;;;;;;;;4999511;28;20069;-88
2022/06/06 00:22:48;;;;;;;87.50;38.33;;;;;;;15.54;100.00;68495.09;5003523;28;20108;-88
2022/06/06 00:25:14;;;;;;;85.25;41.88;;;;;;;;;;4998163;28;20070;-88
2022/06/06 00:27:40;;;;;;;88.03;40.50;;;;;;;;;;4992870;28;20554;-88
2022/06/06 00:30:05;;;;;;;90.50;39.63;;;;;;;15.42;100.00;68487.38;4987050;28;20096;-86
2022/06/06 00:35:16;;;;;;;82.20;37.63;;;;;;;15.31;100.00;68474.84;5004255;28;20065;-86
2022/06/06 00:37:42;;;;;;;94.28;39.15;;;;;;;15.32;100.00;68476.53;4988586;28;20038;-86
2022/06/06 00:40:09;;;;;;;98.38;44.22;;;;;;;;;;5001538;28;20529;-86
2022/06/06 00:42:38;;;;;;;101.38;41.75;;;;;;;15.29;100.00;68473.13;4969905;28;20070;-86
2022/06/06 00:45:25;;;;;;;101.10;39.83;;;;;;;15.22;100.00;68464.56;4982767;28;20104;-86
2022/06/06 00:48:40;;;;;;;99.85;42.60;;;;;;;15.08;100.00;68452.47;4986538;28;20077;-86
2022/06/06 00:51:09;;;;;;;98.80;39.78;;;;;;;15.03;100.00;68446.19;4910603;29;20046;-86
2022/06/06 00:53:41;;;;;;;109.00;46.38;;;;;;;14.93;100.00;68438.03;4918726;28;20528;-86
2022/06/06 00:56:27;;;;;;;110.57;42.30;;;;;;;14.89;100.00;68431.38;4980944;28;20049;-86
2022/06/06 00:58:56;;;;;;;111.65;42.25;;;;;;;;;;4993206;28;20046;-87
2022/06/06 01:01:23;;;;;;;121.95;48.70;;;;;;;14.78;100.00;68416.16;4998335;28;20045;-86
2022/06/06 01:03:48;;;;;;;116.47;41.85;;;;;;;;;;4977201;28;20116;-86
2022/06/06 01:06:17;;;;;;;117.95;39.28;;;;;;;14.65;100.00;68401.38;5008288;28;20073;-86
2022/06/06 01:08:46;;;;;;;124.88;45.17;;;;;;;14.70;100.00;68401.69;5009095;28;20042;-85
2022/06/06 01:11:12;;;;;;;120.80;45.28;;;;;;;14.62;100.00;68393.19;5004173;28;20084;-85
2022/06/06 01:13:41;;;;;;;110.80;42.38;;;;;;;14.57;100.00;68392.84;4981607;28;20504;-86
2022/06/06 01:16:38;;;;;;;115.63;48.95;;;;;;;14.54;100.00;68388.84;4996935;28;20185;-85
2022/06/06 01:19:30;;;;;;;105.25;45.92;;;;;;;14.50;100.00;68386.94;4972538;28;20038;-85
2022/06/06 01:21:59;;;;;;;103.80;46.40;;;;;;;14.52;100.00;68387.13;4993252;28;20053;-86
2022/06/06 01:25:09;;;;;;;95.90;41.23;;;;;;;14.50;100.00;68384.25;4991754;28;20054;-86
2022/06/06 01:27:43;;;;;;;94.20;41.03;;;;;;;14.51;100.00;68391.34;4970094;28;20046;-86
2022/06/06 01:30:16;;;;;;;93.00;42.13;;;;;;;14.50;100.00;68384.84;4989072;28;20046;-85
2022/06/06 01:32:48;;;;;;;86.03;37.40;;;;;;;14.53;100.00;68387.69;4997880;28;20074;-87
2022/06/06 01:35:25;;;;;;;73.93;34.78;;;;;;;;;;4979832;28;20038;-87
2022/06/06 01:37:50;;;;;;;74.20;30.90;;;;;;;14.50;100.00;68384.25;5003999;28;20095;-86
2022/06/06 01:40:17;;;;;;;65.35;28.98;;;;;;;14.49;100.00;68383.69;5002527;28;20046;-86
2022/06/06 01:43:12;;;;;;;63.40;30.67;;;;;;;14.50;100.00;68384.84;4984100;28;20164;-86
2022/06/06 01:45:58;;;;;;;62.75;28.65;;;;;;;14.48;100.00;68387.94;5007608;28;20070;-85
2022/06/06 01:48:29;;;;;;;56.08;29.02;;;;;;;14.50;100.00;68378.91;4993335;28;20234;-84
2022/06/06 01:50:54;;;;;;;47.90;23.70;;;;;;;14.49;100.00;68383.13;5007891;28;20045;-84
2022/06/06 01:53:21;;;;;;;48.70;22.95;;;;;;;;;;4992077;28;20404;-84
2022/06/06 01:55:47;;;;;;;49.22;26.27;;;;;;;;;;5004904;28;20037;-84
2022/06/06 01:58:34;;;;;;;50.88;24.55;;;;;;;14.59;100.00;68394.56;5002249;28;20042;-84
2022/06/06 02:01:01;;;;;;;46.65;23.92;;;;;;;14.61;100.00;68397.38;4989923;28;20109;-85
2022/06/06 02:03:26;;;;;;;49.58;23.48;;;;;;;;;;5009347;28;20148;-85
2022/06/06 02:05:52;;;;;;;46.42;23.17;;;;;;;;;;4986606;28;20947;-84
2022/06/06 02:08:17;;;;;;;43.92;23.65;;;;;;;;;;5003004;28;20042;-85
2022/06/06 02:10:43;;;;;;;42.70;24.65;;;;;;;14.58;100.00;68396.66;4997051;28;20038;-84
2022/06/06 02:13:08;;;;;;;42.70;23.40;;;;;;;;;;5001525;28;20034;-83
2022/06/06 02:15:35;;;;;;;35.00;17.02;;;;;;;14.55;100.00;68392.66;5007640;28;20603;-83
2022/06/06 02:18:01;;;;;;;38.35;22.20;;;;;;;14.54;100.00;68389.41;4989947;28;20065;-83
2022/06/06 02:20:29;;;;;;;35.60;21.35;;;;;;;14.56;100.00;68391.13;5009307;28;20034;-83
2022/06/06 02:22:54;;;;;;;35.58;17.90;;;;;;;14.54;100.00;68383.50;5008393;28;20050;-83
2022/06/06 02:25:20;;;;;;;34.63;19.23;;;;;;;14.51;100.00;68380.63;4990324;28;20054;-84
2022/06/06 02:27:46;;;;;;;34.00;19.58;;;;;;;;;;4990105;28;20080;-84
2022/06/06 02:30:17;;;;;;;35.50;17.67;;;;;;;14.50;100.00;68384.84;4996350;28;20093;-84
2022/06/06 02:32:43;;;;;;;42.55;23.88;;;;;;;14.50;100.00;68378.91;5007587;28;20064;-85
2022/06/06 02:35:10;;;;;;;41.35;21.95;;;;;;;;;;5009723;28;20062;-85
2022/06/06 02:37:36;;;;;;;38.47;20.25;;;;;;;14.49;100.00;68383.13;5006339;28;20033;-85
2022/06/06 02:40:02;;;;;;;42.67;24.20;;;;;;;14.50;100.00;68384.25;5008592;28;20038;-85
2022/06/06 02:42:27;;;;;;;43.75;22.88;;;;;;;14.51;100.00;68385.41;5002637;28;20050;-84
2022/06/06 02:44:53;;;;;;;44.17;22.65;;;;;;;14.50;100.00;68384.84;5008450;28;20424;-84
2022/06/06 02:47:18;;;;;;;45.65;24.77;;;;;;;14.53;100.00;68388.28;5007243;28;20033;-85
2022/06/06 02:49:43;;;;;;;49.53;23.17;;;;;;;;;;5001036;28;20543;-84
2022/06/06 02:52:09;;;;;;;50.08;28.92;;;;;;;;;;4971540;28;20426;-84
2022/06/06 02:54:34;;;;;;;47.97;28.77;;;;;;;14.49;100.00;68378.34;4987638;28;20045;-84
2022/06/06 02:57:01;;;;;;;45.25;25.15;;;;;;;;;;5002704;28;20278;-85
2022/06/06 02:59:29;;;;;;;43.63;22.92;;;;;;;14.47;100.00;68381.41;4973139;28;20046;-85
2022/06/06 03:01:54;;;;;;;44.20;22.98;;;;;;;14.50;100.00;68384.84;4994547;28;20046;-85
2022/06/06 03:04:20;;;;;;;48.50;25.08;;;;;;;;;;5007890;28;20046;-85
2022/06/06 03:06:45;;;;;;;47.13;22.85;;;;;;;14.47;100.00;68384.09;4989787;28;20050;-85
2022/06/06 03:09:13;;;;;;;50.08;25.60;;;;;;;;;;5008525;28;20099;-85
2022/06/06 03:11:44;;;;;;;47.73;24.07;;;;;;;14.49;100.00;68378.34;4988267;28;20034;-85
2022/06/06 03:14:28;;;;;;;41.75;20.73;;;;;;;;;;4990408;28;20099;-85
2022/06/06 03:23:20;;;;;;;46.97;26.50;;;;;;;14.49;100.00;68389.06;5017359;28;20099;-76
2022/06/06 03:26:04;;;;;;;52.92;28.33;;;;;;;;;;5018718;28;20146;-77
2022/06/06 03:28:55;;;;;;;50.35;26.48;;;;;;;14.55;100.00;68384.63;5001191;28;20097;-78
2022/06/06 03:31:54;;;;;;;44.13;22.70;;;;;;;14.49;100.00;68383.69;5001772;28;20034;-78
2022/06/06 03:34:19;;;;;;;;;;;;;;;14.54;100.00;68388.84;4993892;28;20042;-77
2022/06/06 03:37:16;;;;;;;45.65;24.98;;;;;;;14.47;100.00;68384.09;5008129;28;19924;-78
2022/06/06 03:39:41;;;;;;;43.17;22.48;;;;;;;;;;5020816;28;20048;-76
2022/06/06 03:42:19;;;;;;;41.43;23.07;;;;;;;14.49;100.00;68385.81;5004206;28;20046;-77
2022/06/06 03:44:54;;;;;;;47.10;23.65;;;;;;;;;;5018441;28;20281;-78
2022/06/06 03:47:39;;;;;;;43.45;24.10;;;;;;;;;;5008851;28;20100;-78
2022/06/06 03:50:22;;;;;;;43.28;24.05;;;;;;;;;;5011225;28;20048;-74
2022/06/06 03:52:55;;;;;;;44.80;23.60;;;;;;;14.58;100.00;68385.94;5016147;28;20041;-76
2022/06/06 03:55:23;;;;;;;40.65;21.52;;;;;;;;;;5017476;28;20185;-77
2022/06/06 03:57:52;;;;;;;41.05;21.80;;;;;;;14.56;100.00;68391.69;5016876;28;20040;-76
2022/06/06 04:00:20;;;;;;;48.03;23.58;;;;;;;14.57;100.00;68392.28;5021797;28;20059;-77
2022/06/06 04:02:45;;;;;;;43.20;23.17;;;;;;;14.65;100.00;68406.75;5017133;28;20448;-77
2022/06/06 04:05:12;;;;;;;42.50;25.48;;;;;;;;;;5029172;28;20492;-76
2022/06/06 04:07:38;;;;;;;44.63;25.17;;;;;;;;;;5003598;28;20129;-77
2022/06/06 04:10:04;;;;;;;43.78;24.02;;;;;;;14.63;100.00;68399.66;5012144;28;20601;-76
2022/06/06 04:12:37;;;;;;;46.55;23.05;;;;;;;;;;5006655;28;20504;-77
2022/06/06 04:15:16;;;;;;;37.40;21.10;;;;;;;;;;4996361;28;20057;-77
2022/06/06 04:18:06;;;;;;;40.88;21.70;;;;;;;14.69;100.00;68405.34;4988085;28;20374;-77
2022/06/06 04:20:36;;;;;;;38.53;18.85;;;;;;;;;;5007090;28;20038;-76
2022/06/06 04:23:24;;;;;;;34.15;19.98;;;;;;;14.69;100.00;68405.34;4998016;28;20075;-75
2022/06/06 04:26:11;;;;;;;35.70;17.85;;;;;;;14.64;100.00;68395.47;4976400;28;20068;-74
2022/06/06 04:29:05;;;;;;;31.33;17.83;;;;;;;14.63;100.00;68401.78;5004003;28;20053;-77
2022/06/06 04:31:50;;;;;;;34.92;20.08;;;;;;;14.62;100.00;68398.53;5025586;28;20067;-76
2022/06/06 04:35:06;;;;;;;34.22;19.70;;;;;;;14.61;100.00;68396.81;5008369;28;20061;-76
2022/06/06 04:37:36;;;;;;;27.73;15.00;;;;;;;;;;5006291;28;20045;-77
2022/06/06 04:40:20;;;;;;;31.38;15.77;;;;;;;14.53;100.00;68382.94;5013692;28;20175;-77
2022/06/06 04:42:45;;;;;;;25.80;14.43;;;;;;;;;;5020006;28;20136;-77
2022/06/06 04:45:16;;;;;;;25.17;14.07;;;;;;;;;;5014631;28;20133;-75
2022/06/06 04:47:42;;;;;;;25.80;14.52;;;;;;;;;;5029234;28;20291;-77
2022/06/06 04:50:11;;;;;;;25.25;15.23;;;;;;;14.54;100.00;68383.50;5024089;28;20041;-77
2022/06/06 04:52:38;;;;;;;31.27;14.15;;;;;;;;;;5029437;28;20065;-76
2022/06/06 04:55:07;;;;;;;28.05;14.05;;;;;;;14.51;100.00;68385.97;5002610;28;20046;-76
2022/06/06 04:57:33;;;;;;;24.92;15.50;;;;;;;;;;5032044;28;20500;-76
2022/06/06 04:59:59;;;;;;;26.20;14.48;;;;;;;;;;5021105;28;20081;-76
2022/06/06 05:02:26;;;;;;;27.30;14.05;;;;;;;14.53;100.00;68382.34;5012424;28;20069;-77
2022/06/06 05:04:51;;;;;;;23.88;13.25;;;;;;;14.43;100.00;68371.53;5020789;28;20042;-76
2022/06/06 05:07:25;;;;;;;23.40;13.98;;;;;;;14.42;100.00;68376.31;5028429;28;20441;-78
2022/06/06 05:10:16;;;;;;;27.73;14.60;;;;;;;14.47;100.00;68380.84;5012438;28;20041;-77
2022/06/06 05:12:49;;;;;;;37.60;20.17;;;;;;;14.38;100.00;68376.53;5003660;28;20045;-76
2022/06/06 05:15:45;;;;;;;41.22;20.38;;;;;;;14.42;100.00;68375.75;5022579;28;20463;-77
2022/06/06 05:18:22;;;;;;;52.83;26.42;;;;;;;14.42;100.00;68375.75;4992182;28;20045;-77
2022/06/06 05:21:08;;;;;;;59.33;30.42;;;;;;;;;;5013343;28;20091;-75
2022/06/06 05:23:42;;;;;;;66.32;32.28;;;;;;;;;;4972876;28;20073;-75
2022/06/06 05:26:28;;;;;;;78.93;40.22;;;;;;;14.54;100.00;68383.50;5007102;28;20052;-76
2022/06/06 05:29:09;;;;;;;72.35;38.03;;;;;;;;;;5010417;28;20120;-77
2022/06/06 05:31:37;;;;;;;74.95;41.58;;;;;;;14.54;100.00;68389.41;4990347;28;20046;-77
2022/06/06 05:34:17;;;;;;;76.47;44.87;;;;;;;14.56;100.00;68391.13;5031572;28;20396;-77
2022/06/06 05:37:04;;;;;;;74.47;38.75;;;;;;;14.57;100.00;68392.28;5010530;28;20030;-77
2022/06/06 05:39:48;;;;;;;76.90;40.13;;;;;;;14.58;100.00;68393.97;4992929;28;20034;-78
2022/06/06 05:42:40;;;;;;;76.47;40.15;;;;;;;14.56;100.00;68391.13;5004634;28;20137;-77
2022/06/06 05:45:14;;;;;;;70.45;38.25;;;;;;;14.58;100.00;68393.41;5011716;28;20500;-79
2022/06/06 05:47:58;;;;;;;75.85;40.25;;;;;;;;;;5002075;28;20126;-78
2022/06/06 05:50:42;;;;;;;72.00;36.72;;;;;;;14.57;100.00;68392.28;4992182;28;20147;-76
2022/06/06 05:53:18;;;;;;;69.75;41.95;;;;;;;;;;4998792;28;20041;-78
2022/06/06 05:55:53;;;;;;;69.40;38.83;;;;;;;;;;5028413;28;20107;-76
2022/06/06 05:58:37;;;;;;;63.72;36.58;;;;;;;;;;5001684;28;20114;-78
2022/06/06 06:01:21;;;;;;;61.65;33.25;;;;;;;;;;5007298;28;20041;-75
2022/06/06 06:03:49;;;;;;;54.58;30.67;;;;;;;14.64;100.00;68394.88;5012295;28;20045;-78
2022/06/06 06:06:24;;;;;;;54.67;32.43;;;;;;;14.71;100.00;68408.22;5015947;28;20049;-77
2022/06/06 06:09:17;;;;;;;53.33;31.75;;;;;;;14.72;100.00;68408.78;5009966;28;20585;-77
2022/06/06 06:12:00;;;;;;;48.53;27.70;;;;;;;;;;5002006;28;20046;-76
2022/06/06 06:14:54;;;;;;;49.35;29.85;;;;;;;14.77;100.00;68409.13;5014128;28;20508;-78
2022/06/06 06:17:23;;;;;;;45.85;25.45;;;;;;;;;;4956433;28;20042;-78
2022/06/06 06:20:09;;;;;;;43.75;26.70;;;;;;;14.87;100.00;68425.84;5007424;28;20041;-76
2022/06/06 06:22:40;;;;;;;40.15;23.40;;;;;;;;;;4996255;28;20050;-78
2022/06/06 06:25:08;;;;;;;37.67;21.50;;;;;;;14.76;100.00;68413.31;4989203;28;20126;-77
2022/06/06 06:27:34;;;;;;;39.15;25.27;;;;;;;14.89;100.00;68422.78;5001665;28;20080;-78
2022/06/06 06:30:00;;;;;;;31.48;21.55;;;;;;;14.91;100.00;68430.41;4999618;28;20073;-77
2022/06/06 06:32:49;;;;;;;29.38;19.98;;;;;;;14.87;100.00;68420.50;5002998;28;20520;-78
2022/06/06 06:35:46;;;;;;;26.95;20.95;;;;;;;14.89;100.00;68428.69;5013199;28;20056;-77
2022/06/06 06:38:17;;;;;;;28.88;18.17;;;;;;;;;;4974059;28;20104;-78
2022/06/06 06:40:45;;;;;;;28.05;17.30;;;;;;;;;;5022309;28;20037;-77
2022/06/06 06:43:10;;;;;;;26.03;21.07;;;;;;;14.97;100.00;68431.88;4987718;28;20444;-79
2022/06/06 06:45:42;;;;;;;29.60;23.15;;;;;;;15.09;100.00;68445.53;5010213;28;20100;-78
2022/06/06 06:48:12;;;;;;;28.98;18.60;;;;;;;15.06;100.00;68447.50;4979066;28;20104;-78
2022/06/06 06:50:47;;;;;;;29.88;20.67;;;;;;;15.04;100.00;68445.22;5002917;28;20804;-78
2022/06/06 06:53:13;;;;;;;30.40;21.27;;;;;;;15.11;100.00;68447.81;4977334;28;20034;-78
2022/06/06 06:56:09;;;;;;;29.27;21.73;;;;;;;15.07;100.00;68442.69;4998713;28;20103;-77
2022/06/06 06:58:52;;;;;;;29.42;22.35;;;;;;;15.06;100.00;68447.50;4982681;28;20077;-78
2022/06/06 07:01:30;;;;;;;29.42;21.70;;;;;;;15.11;100.00;68447.81;4995454;28;20803;-77
2022/06/06 07:10:17;;;;;;;21.67;17.17;;;;;;;15.18;96.78;68460.03;5017547;28;20075;-78
2022/06/06 07:13:00;;;;;;;;;;;;;;;15.21;94.71;68464.00;5025748;28;20064;-79
2022/06/06 07:15:47;;;;;;;21.33;16.33;;;;;;;15.27;94.13;68472.94;5012990;28;19948;-77
2022/06/06 07:18:16;;;;;;;22.70;13.82;;;;;;;15.32;92.31;68475.97;4985196;28;20099;-77
2022/06/06 07:20:41;;;;;;;;;;;;;;;;;;5024453;28;20167;-77
2022/06/06 07:23:11;;;;;;;18.83;13.43;;;;;;;15.17;90.56;68453.53;5009897;28;20012;-77
2022/06/06 07:25:56;;;;;;;21.58;15.30;;;;;;;;;;5005153;28;20045;-77
2022/06/06 07:28:23;;;;;;;20.73;15.75;;;;;;;15.28;91.82;68471.41;5007404;28;20041;-79
2022/06/06 07:31:07;;;;;;;18.40;14.82;;;;;;;15.34;92.02;68472.88;5006906;28;20041;-78
2022/06/06 07:33:32;;;;;;;22.23;15.27;;;;;;;;;;5012325;28;20434;-78
2022/06/06 07:36:06;;;;;;;20.52;15.27;;;;;;;;;;5009666;28;20058;-75
2022/06/06 07:38:51;;;;;;;23.13;18.23;;;;;;;;;;5004553;28;20046;-78
2022/06/06 07:41:41;;;;;;;23.52;16.40;;;;;;;15.36;93.10;68480.50;4972729;28;20042;-76
2022/06/06 07:44:06;;;;;;;21.05;14.40;;;;;;;;;;4993141;28;20111;-76
2022/06/06 07:46:38;;;;;;;17.00;12.07;;;;;;;;;;5010100;28;20106;-78
2022/06/06 07:49:34;;;;;;;17.20;12.88;;;;;;;15.57;93.73;68506.56;5007800;28;20284;-79
2022/06/06 07:52:03;;;;;;;12.25;10.80;;;;;;;15.74;92.46;68522.72;5015060;28;20538;-78
2022/06/06 07:54:34;;;;;;;16.33;10.90;;;;;;;;;;5010394;28;20482;-76
2022/06/06 07:57:05;;;;;;;10.98;9.38;;;;;;;;;;5001115;28;20072;-78
2022/06/06 08:00:06;;;;;;;11.48;8.85;;;;;;;15.62;84.48;68503.63;5007340;28;20053;-78
2022/06/06 08:03:16;;;;;;;12.90;8.73;;;;;;;15.72;84.53;68520.44;4984464;28;20057;-77
2022/06/06 08:05:55;;;;;;;11.43;8.68;;;;;;;15.65;83.80;68515.09;4934301;29;20095;-78
2022/06/06 08:08:50;;;;;;;11.40;8.60;;;;;;;15.65;84.93;68513.00;4953972;29;20391;-77
2022/06/06 08:11:37;;;;;;;11.75;8.98;;;;;;;15.81;86.26;68530.69;4966518;28;20081;-77
2022/06/06 08:14:25;;;;;;;11.57;7.85;;;;;;;15.89;84.19;68534.44;5005828;28;20041;-77
2022/06/06 08:17:01;;;;;;;10.40;7.03;;;;;;;;;;5007142;28;20042;-77
2022/06/06 08:19:48;;;;;;;10.32;6.20;;;;;;;16.16;84.09;68564.06;5012314;28;20497;-76
2022/06/06 08:22:14;;;;;;;11.57;7.00;;;;;;;;;;4982786;28;20449;-77
2022/06/06 08:24:45;;;;;;;8.13;6.03;;;;;;;16.27;80.77;68573.91;5012566;28;20041;-79
2022/06/06 08:27:13;;;;;;;10.50;6.10;;;;;;;;;;5019629;28;20054;-78
2022/06/06 08:29:39;;;;;;;8.68;5.60;;;;;;;;;;5005403;28;20065;-77
2022/06/06 08:32:05;;;;;;;9.57;6.10;;;;;;;16.30;81.90;68580.00;5013426;28;20038;-77
2022/06/06 08:34:33;;;;;;;8.40;5.65;;;;;;;16.37;81.64;68593.38;5009270;28;20042;-78
2022/06/06 08:37:16;;;;;;;8.90;6.03;;;;;;;;;;5021329;28;20087;-77
2022/06/06 08:39:54;;;;;;;6.88;5.43;;;;;;;16.57;78.12;68615.03;4983936;28;20531;-77
2022/06/06 08:42:22;;;;;;;8.27;5.78;;;;;;;16.59;78.66;68611.94;5005819;28;20390;-77
2022/06/06 08:45:01;;;;;;;6.90;6.13;;;;;;;16.55;78.54;68613.31;5005701;28;20137;-77
2022/06/06 08:47:38;;;;;;;6.85;5.82;;;;;;;16.66;79.89;68619.94;5001342;28;20362;-78
2022/06/06 08:52:47;;;;;;;11.90;6.05;;;;;;;;;;5008068;28;20407;-77
2022/06/06 08:55:43;;;;;;;7.53;6.23;;;;;;;16.57;79.15;68609.66;5001345;28;20046;-78
2022/06/06 08:58:17;;;;;;;6.38;5.40;;;;;;;16.84;75.87;68637.78;4999657;28;20903;-78
2022/06/06 09:01:03;;;;;;;7.22;4.90;;;;;;;16.92;73.98;68649.59;5007099;28;20046;-78
2022/06/06 09:04:11;;;;;;;6.88;4.72;;;;;;;16.86;72.72;68642.16;4998833;28;20049;-76
2022/06/06 09:07:08;;;;;;;6.63;5.20;;;;;;;16.74;72.61;68633.84;4972371;28;20141;-78
2022/06/06 09:09:58;;;;;;;7.20;5.30;;;;;;;16.86;73.27;68647.56;4996689;28;20076;-77
2022/06/06 09:12:48;;;;;;;5.57;3.88;;;;;;;16.80;71.67;68640.72;5002096;28;20041;-77
2022/06/06 09:15:43;;;;;;;7.18;4.07;;;;;;;16.75;73.36;68629.63;4983942;28;20641;-76
2022/06/06 09:18:34;;;;;;;4.20;3.03;;;;;;;16.61;72.62;68619.59;5010450;28;20049;-77
2022/06/06 09:20:59;;;;;;;5.85;2.53;;;;;;;;;;5022025;28;20465;-77
2022/06/06 09:23:39;;;;;;;3.77;2.00;;;;;;;;;;5022939;28;20064;-77
2022/06/06 09:26:23;;;;;;;4.65;2.40;;;;;;;;;;5010825;28;20283;-76
2022/06/06 09:29:07;;;;;;;3.00;1.85;;;;;;;;;;5019993;28;20042;-76
2022/06/06 09:31:41;;;;;;;3.33;1.80;;;;;;;16.91;73.09;68647.88;5008590;28;20096;-78
2022/06/06 09:34:18;;;;;;;3.50;1.80;;;;;;;17.00;70.31;68662.94;5005516;28;20046;-77
2022/06/06 09:36:54;;;;;;;4.07;1.90;;;;;;;;;;5008555;28;20527;-77
2022/06/06 09:39:47;;;;;;;5.30;1.70;;;;;;;16.99;70.07;68657.00;5000222;28;20409;-76
2022/06/06 09:42:37;;;;;;;3.95;2.10;;;;;;;17.09;70.93;68667.84;5010936;28;20042;-76
2022/06/06 09:45:17;;;;;;;2.83;1.60;;;;;;;16.95;69.63;68651.88;5002988;28;20046;-76
2022/06/06 09:48:00;;;;;;;2.85;1.58;;;;;;;16.91;70.17;68653.25;5022906;28;20050;-77
2022/06/06 09:50:48;;;;;;;2.80;1.45;;;;;;;16.82;69.04;68638.19;5018037;28;20037;-77
2022/06/06 09:53:27;;;;;;;2.72;1.52;;;;;;;;;;5017367;28;20054;-77
2022/06/06 09:59:32;;;;;;;4.15;1.48;;;;;;;17.22;70.81;68682.66;5012233;28;20396;-76
2022/06/06 10:02:00;;;;;;;3.15;1.10;;;;;;;;;;5028257;28;20041;-77
2022/06/06 10:05:03;;;;;;;2.60;1.20;;;;;;;17.79;67.56;68751.41;5009624;28;20049;-76
2022/06/06 10:07:28;;;;;;;4.15;1.40;;;;;;;;;;4974738;28;20485;-77
2022/06/06 10:09:53;;;;;;;2.60;1.40;;;;;;;;;;5017840;28;20049;-77
2022/06/06 10:12:31;;;;;;;2.03;1.23;;;;;;;18.02;65.85;68771.69;5011143;28;20296;-76
2022/06/06 10:15:21;;;;;;;3.17;1.10;;;;;;;17.77;64.43;68744.28;4983171;28;20049;-77
2022/06/06 10:17:58;;;;;;;3.13;1.23;;;;;;;;;;5003507;28;20128;-76
2022/06/06 10:20:29;;;;;;;3.83;1.15;;;;;;;17.66;65.57;68731.16;5004824;28;20092;-77
2022/06/06 10:23:07;;;;;;;3.58;1.17;;;;;;;;;;5001007;28;20045;-77
2022/06/06 10:25:53;;;;;;;6.05;1.17;;;;;;;17.84;65.44;68751.16;5006676;28;20855;-77
2022/06/06 10:28:33;;;;;;;3.15;1.00;;;;;;;;;;5001232;28;20572;-76
2022/06/06 10:31:32;;;;;;;2.17;0.98;;;;;;;17.75;62.14;68747.41;5004262;28;20605;-77
2022/06/06 10:34:16;;;;;;;2.33;0.80;;;;;;;;;;5002998;28;20535;-76
2022/06/06 10:36:57;;;;;;;2.50;1.42;;;;;;;17.60;63.95;68724.88;5001908;28;20034;-77
2022/06/06 10:39:32;;;;;;;2.80;1.25;;;;;;;;;;5003588;28;20052;-77
2022/06/06 10:42:32;;;;;;;3.60;1.50;;;;;;;17.54;65.89;68724.00;4999307;28;20060;-78
2022/06/06 10:45:20;;;;;;;2.25;1.30;;;;;;;;;;5001743;28;20057;-77
2022/06/06 10:47:46;;;;;;;2.85;1.23;;;;;;;17.51;65.73;68714.63;4973497;28;20180;-77
2022/06/06 10:50:20;;;;;;;2.35;1.48;;;;;;;17.43;65.39;68710.88;5002796;28;20136;-77
2022/06/06 10:53:00;;;;;;;3.10;1.30;;;;;;;17.40;66.44;68702.06;4984271;28;20077;-77
2022/06/06 10:55:49;;;;;;;4.07;1.38;;;;;;;17.65;67.17;68730.59;5003152;28;20038;-76
2022/06/06 10:58:17;;;;;;;4.78;1.25;;;;;;;;;;4982917;28;20398;-77
2022/06/06 11:01:21;;;;;;;2.40;1.20;;;;;;;17.99;65.52;68768.84;4997395;28;20053;-78
2022/06/06 11:04:10;;;;;;;3.33;1.65;;;;;;;18.30;64.13;68799.81;5001025;28;20038;-78
2022/06/06 11:07:00;;;;;;;2.88;1.05;;;;;;;;;;5004232;28;20042;-77
2022/06/06 11:09:25;;;;;;;3.45;1.20;;;;;;;18.42;64.26;68822.19;4999119;28;20034;-78
2022/06/06 11:12:09;;;;;;;1.42;0.82;;;;;;;18.40;62.35;68813.94;4999007;28;20050;-77
2022/06/06 11:14:37;;;;;;;2.95;1.20;;;;;;;18.48;62.29;68823.66;5000248;28;20053;-77
2022/06/06 11:17:22;;;;;;;3.72;1.90;;;;;;;18.68;62.78;68851.31;5001262;28;20472;-77
2022/06/06 11:20:31;;;;;;;2.60;0.70;;;;;;;18.72;61.33;68849.91;4987554;28;20529;-76
2022/06/06 11:23:04;;;;;;;3.20;1.00;;;;;;;18.88;60.42;68868.22;4984894;28;20092;-76
2022/06/06 11:25:56;;;;;;;2.05;0.88;;;;;;;18.91;60.01;68871.63;5002545;28;20050;-77
2022/06/06 11:29:07;;;;;;;1.80;0.90;;;;;;;19.05;59.79;68883.78;4999358;28;20042;-78
2022/06/06 11:31:51;;;;;;;3.30;0.80;;;;;;;18.77;58.68;68861.03;4967798;28;20049;-77
2022/06/06 11:34:19;;;;;;;2.70;1.00;;;;;;;18.72;60.06;68849.91;4998654;28;20048;-77
2022/06/06 11:37:03;;;;;;;2.80;1.05;;;;;;;;;;5003532;28;20060;-77
2022/06/06 11:39:47;;;;;;;3.88;1.23;;;;;;;;;;5001310;28;20099;-77
2022/06/06 11:42:33;;;;;;;2.05;0.80;;;;;;;18.90;60.40;68870.50;5001845;28;20036;-76
2022/06/06 11:45:35;;;;;;;2.35;0.88;;;;;;;19.09;62.46;68891.63;5003100;28;20037;-77
2022/06/06 11:48:01;;;;;;;3.42;0.93;;;;;;;19.23;59.83;68906.47;4985225;28;20100;-77
2022/06/06 11:50:42;;;;;;;2.53;1.10;;;;;;;19.46;60.46;68932.19;5003940;28;20034;-78
2022/06/06 11:53:32;;;;;;;2.45;0.73;;;;;;;19.47;60.01;68931.19;5002178;28;20049;-77
2022/06/06 11:56:04;;;;;;;2.63;0.90;;;;;;;;;;5005625;28;20412;-77
2022/06/06 11:58:32;;;;;;;1.75;1.02;;;;;;;19.57;58.53;68945.31;5000921;28;20041;-77
2022/06/06 12:01:03;;;;;;;2.67;1.10;;;;;;;;;;4983576;28;20041;-78
2022/06/06 12:03:44;;;;;;;2.80;1.10;;;;;;;19.12;56.65;68891.78;5003311;28;20045;-77
2022/06/06 12:06:28;;;;;;;2.30;0.90;;;;;;;19.15;57.10;68895.19;5001302;28;20048;-76
2022/06/06 12:09:05;;;;;;;3.08;1.00;;;;;;;19.38;55.11;68920.91;4986287;28;20125;-77
2022/06/06 12:12:06;;;;;;;2.20;0.93;;;;;;;19.23;55.13;68907.03;5002282;28;20038;-77
2022/06/06 12:14:53;;;;;;;2.83;1.00;;;;;;;19.43;58.12;68926.63;5012649;28;20044;-76
2022/06/06 12:17:56;;;;;;;3.10;1.10;;;;;;;19.65;57.45;68950.59;5000395;28;20069;-76
2022/06/06 12:20:40;;;;;;;3.65;1.00;;;;;;;19.57;57.76;68942.63;4985275;28;20128;-76
2022/06/06 12:23:29;;;;;;;4.53;1.10;;;;;;;19.75;57.51;68964.78;4983767;28;20057;-76
2022/06/06 12:26:02;;;;;;;1.58;0.85;;;;;;;19.54;54.38;68941.31;5002829;28;20207;-76
2022/06/06 12:28:47;;;;;;;2.80;0.70;;;;;;;;;;4985538;28;20096;-77
2022/06/06 12:31:38;;;;;;;2.08;0.88;;;;;;;19.20;54.59;68903.03;4985325;28;20104;-77
2022/06/06 12:34:12;;;;;;;3.47;1.02;;;;;;;19.06;56.18;68887.63;4991693;28;20046;-77
2022/06/06 12:37:07;;;;;;;3.47;0.93;;;;;;;18.89;55.70;68874.72;4993842;28;20125;-77
2022/06/06 12:39:39;;;;;;;2.55;0.90;;;;;;;;;;4986041;28;20042;-76
2022/06/06 12:42:14;;;;;;;3.90;0.70;;;;;;;;;;5000657;28;20064;-76
2022/06/06 12:44:51;;;;;;;2.92;0.90;;;;;;;18.69;56.40;68852.44;5003352;28;20446;-77
2022/06/06 12:47:59;;;;;;;5.03;0.70;;;;;;;19.01;57.78;68879.22;4963824;28;20568;-77
2022/06/06 12:50:33;;;;;;;2.30;0.60;;;;;;;19.24;56.94;68908.19;4961332;28;20042;-77
2022/06/06 12:53:14;;;;;;;3.13;0.88;;;;;;;19.44;57.11;68929.88;5009337;28;20648;-77
2022/06/06 12:56:17;;;;;;;2.95;0.80;;;;;;;19.56;55.22;68938.19;4999755;28;20069;-76
2022/06/06 12:59:17;;;;;;;3.22;0.70;;;;;;;19.70;52.12;68954.22;4986599;28;20509;-76
2022/06/06 13:02:04;;;;;;;1.52;0.60;;;;;;;19.68;50.96;68954.06;4998893;28;20806;-76
2022/06/06 13:05:02;;;;;;;3.65;0.77;;;;;;;19.75;53.97;68959.94;5014652;28;20046;-75
2022/06/06 13:07:50;;;;;;;1.73;0.60;;;;;;;20.08;53.34;69001.34;4970248;28;20109;-77
2022/06/06 13:10:27;;;;;;;1.60;0.83;;;;;;;20.31;52.33;69027.06;5004311;28;20613;-76
2022/06/06 13:13:01;;;;;;;3.83;0.80;;;;;;;20.32;52.60;69028.78;5005996;28;20065;-76
2022/06/06 13:15:36;;;;;;;2.20;0.70;;;;;;;20.59;52.45;69058.53;5006416;28;20041;-77
2022/06/06 13:18:04;;;;;;;1.55;0.80;;;;;;;20.39;52.84;69036.78;5004481;28;20045;-76
2022/06/06 13:20:29;;;;;;;4.20;1.10;;;;;;;;;;5009778;28;20076;-76